sensor_id;sensor_type;location;lat;lon;timestamp;P1;durP1;ratioP1;P2;durP2;ratioP2
57057;SDS011;55017;52.848;6.748;2022-12-16T00:00:31;183.35;;;173.52;;
57057;SDS011;55017;52.848;6.748;2022-12-16T00:03:00;182.18;;;172.18;;
57057;SDS011;55017;52.848;6.748;2022-12-16T00:05:27;183.82;;;173.90;;
57057;SDS011;55017;52.848;6.748;2022-12-16T00:07:53;183.63;;;173.80;;
57057;SDS011;55017;52.848;6.748;2022-12-16T00:10:19;186.25;;;176.85;;
57057;SDS011;55017;52.848;6.748;2022-12-16T00:12:46;180.57;;;171.13;;
57057;SDS011;55017;52.848;6.748;2022-12-16T00:15:11;180.88;;;170.98;;
57057;SDS011;55017;52.848;6.748;2022-12-16T00:17:37;182.15;;;172.65;;
57057;SDS011;55017;52.848;6.748;2022-12-16T00:20:04;183.25;;;173.80;;
57057;SDS011;55017;52.848;6.748;2022-12-16T00:22:30;180.52;;;170.73;;
57057;SDS011;55017;52.848;6.748;2022-12-16T00:24:56;179.07;;;169.48;;
57057;SDS011;55017;52.848;6.748;2022-12-16T00:27:22;182.57;;;172.88;;
57057;SDS011;55017;52.848;6.748;2022-12-16T00:29:48;180.07;;;170.18;;
57057;SDS011;55017;52.848;6.748;2022-12-16T00:32:14;176.02;;;166.85;;
57057;SDS011;55017;52.848;6.748;2022-12-16T00:34:40;175.15;;;165.45;;
57057;SDS011;55017;52.848;6.748;2022-12-16T00:37:06;181.23;;;171.52;;
57057;SDS011;55017;52.848;6.748;2022-12-16T00:39:32;180.73;;;171.73;;
57057;SDS011;55017;52.848;6.748;2022-12-16T00:41:58;185.60;;;175.85;;
57057;SDS011;55017;52.848;6.748;2022-12-16T00:44:24;182.55;;;172.85;;
57057;SDS011;55017;52.848;6.748;2022-12-16T00:46:50;179.35;;;169.90;;
57057;SDS011;55017;52.848;6.748;2022-12-16T00:49:16;181.57;;;172.45;;
57057;SDS011;55017;52.848;6.748;2022-12-16T00:51:42;183.55;;;174.00;;
57057;SDS011;55017;52.848;6.748;2022-12-16T00:54:09;183.80;;;174.13;;
57057;SDS011;55017;52.848;6.748;2022-12-16T00:56:35;180.57;;;171.10;;
57057;SDS011;55017;52.848;6.748;2022-12-16T00:59:01;183.50;;;173.70;;
57057;SDS011;55017;52.848;6.748;2022-12-16T01:01:27;187.18;;;177.70;;
57057;SDS011;55017;52.848;6.748;2022-12-16T01:03:54;181.27;;;172.13;;
57057;SDS011;55017;52.848;6.748;2022-12-16T01:06:21;181.95;;;172.50;;
57057;SDS011;55017;52.848;6.748;2022-12-16T01:08:47;180.32;;;170.82;;
57057;SDS011;55017;52.848;6.748;2022-12-16T01:11:17;187.15;;;177.13;;
57057;SDS011;55017;52.848;6.748;2022-12-16T01:13:43;179.95;;;170.40;;
57057;SDS011;55017;52.848;6.748;2022-12-16T01:16:09;184.77;;;174.70;;
57057;SDS011;55017;52.848;6.748;2022-12-16T01:18:36;180.15;;;170.75;;
57057;SDS011;55017;52.848;6.748;2022-12-16T01:21:03;185.10;;;175.40;;
57057;SDS011;55017;52.848;6.748;2022-12-16T01:23:29;177.63;;;168.27;;
57057;SDS011;55017;52.848;6.748;2022-12-16T01:25:57;182.38;;;172.85;;
57057;SDS011;55017;52.848;6.748;2022-12-16T01:28:23;183.68;;;173.75;;
57057;SDS011;55017;52.848;6.748;2022-12-16T01:30:53;185.13;;;175.48;;
57057;SDS011;55017;52.848;6.748;2022-12-16T01:33:21;180.60;;;171.23;;
57057;SDS011;55017;52.848;6.748;2022-12-16T01:35:47;182.85;;;173.23;;
57057;SDS011;55017;52.848;6.748;2022-12-16T01:38:13;180.10;;;170.40;;
57057;SDS011;55017;52.848;6.748;2022-12-16T01:40:39;183.80;;;173.98;;
57057;SDS011;55017;52.848;6.748;2022-12-16T01:43:11;181.40;;;171.80;;
57057;SDS011;55017;52.848;6.748;2022-12-16T01:45:38;181.65;;;172.10;;
57057;SDS011;55017;52.848;6.748;2022-12-16T01:48:21;184.15;;;174.00;;
57057;SDS011;55017;52.848;6.748;2022-12-16T01:50:50;178.60;;;169.25;;
57057;SDS011;55017;52.848;6.748;2022-12-16T01:53:18;186.18;;;176.40;;
57057;SDS011;55017;52.848;6.748;2022-12-16T01:55:46;182.95;;;173.43;;
57057;SDS011;55017;52.848;6.748;2022-12-16T01:58:14;182.63;;;173.07;;
57057;SDS011;55017;52.848;6.748;2022-12-16T02:00:42;184.25;;;174.57;;
57057;SDS011;55017;52.848;6.748;2022-12-16T02:03:08;185.60;;;175.77;;
57057;SDS011;55017;52.848;6.748;2022-12-16T02:05:37;185.05;;;175.18;;
57057;SDS011;55017;52.848;6.748;2022-12-16T02:10:33;181.77;;;172.15;;
57057;SDS011;55017;52.848;6.748;2022-12-16T02:15:53;181.10;;;171.60;;
57057;SDS011;55017;52.848;6.748;2022-12-16T02:18:31;186.70;;;176.50;;
57057;SDS011;55017;52.848;6.748;2022-12-16T02:21:05;181.68;;;171.80;;
57057;SDS011;55017;52.848;6.748;2022-12-16T02:34:19;178.85;;;169.73;;
57057;SDS011;55017;52.848;6.748;2022-12-16T02:37:22;186.52;;;176.65;;
57057;SDS011;55017;52.848;6.748;2022-12-16T02:39:58;186.00;;;176.07;;
57057;SDS011;55017;52.848;6.748;2022-12-16T02:44:57;184.73;;;174.45;;
57057;SDS011;55017;52.848;6.748;2022-12-16T02:47:25;182.80;;;172.80;;
57057;SDS011;55017;52.848;6.748;2022-12-16T02:49:52;182.63;;;172.77;;
57057;SDS011;55017;52.848;6.748;2022-12-16T02:52:23;186.80;;;176.88;;
57057;SDS011;55017;52.848;6.748;2022-12-16T02:54:51;184.40;;;174.45;;
57057;SDS011;55017;52.848;6.748;2022-12-16T03:02:30;181.05;;;170.77;;
57057;SDS011;55017;52.848;6.748;2022-12-16T03:07:39;188.65;;;178.27;;
57057;SDS011;55017;52.848;6.748;2022-12-16T03:10:07;181.15;;;171.55;;
57057;SDS011;55017;52.848;6.748;2022-12-16T03:12:35;185.87;;;175.70;;
57057;SDS011;55017;52.848;6.748;2022-12-16T03:15:03;179.73;;;169.83;;
57057;SDS011;55017;52.848;6.748;2022-12-16T03:17:29;188.20;;;178.13;;
57057;SDS011;55017;52.848;6.748;2022-12-16T03:19:59;180.75;;;171.30;;
57057;SDS011;55017;52.848;6.748;2022-12-16T03:22:27;184.35;;;174.73;;
57057;SDS011;55017;52.848;6.748;2022-12-16T03:24:54;181.40;;;171.60;;
57057;SDS011;55017;52.848;6.748;2022-12-16T03:27:22;189.40;;;179.02;;
57057;SDS011;55017;52.848;6.748;2022-12-16T03:29:52;185.00;;;174.88;;
57057;SDS011;55017;52.848;6.748;2022-12-16T03:37:53;187.57;;;177.27;;
57057;SDS011;55017;52.848;6.748;2022-12-16T03:40:20;182.18;;;172.40;;
57057;SDS011;55017;52.848;6.748;2022-12-16T03:42:47;188.88;;;178.43;;
57057;SDS011;55017;52.848;6.748;2022-12-16T03:45:15;184.73;;;174.68;;
57057;SDS011;55017;52.848;6.748;2022-12-16T03:47:42;180.67;;;170.93;;
57057;SDS011;55017;52.848;6.748;2022-12-16T03:50:12;182.50;;;172.98;;
57057;SDS011;55017;52.848;6.748;2022-12-16T03:52:39;187.70;;;177.63;;
57057;SDS011;55017;52.848;6.748;2022-12-16T03:55:05;183.70;;;173.32;;
57057;SDS011;55017;52.848;6.748;2022-12-16T03:57:31;186.70;;;176.07;;
57057;SDS011;55017;52.848;6.748;2022-12-16T03:59:57;191.45;;;181.07;;
57057;SDS011;55017;52.848;6.748;2022-12-16T04:02:23;190.52;;;180.15;;
57057;SDS011;55017;52.848;6.748;2022-12-16T04:04:49;183.18;;;173.38;;
57057;SDS011;55017;52.848;6.748;2022-12-16T04:07:15;187.43;;;177.18;;
57057;SDS011;55017;52.848;6.748;2022-12-16T04:09:50;187.65;;;177.05;;
57057;SDS011;55017;52.848;6.748;2022-12-16T04:12:17;188.60;;;178.75;;
57057;SDS011;55017;52.848;6.748;2022-12-16T04:15:21;189.10;;;178.85;;
57057;SDS011;55017;52.848;6.748;2022-12-16T04:18:07;188.10;;;177.65;;
57057;SDS011;55017;52.848;6.748;2022-12-16T04:20:56;181.52;;;171.82;;
57057;SDS011;55017;52.848;6.748;2022-12-16T04:23:48;184.98;;;174.73;;
57057;SDS011;55017;52.848;6.748;2022-12-16T04:26:34;186.75;;;176.50;;
57057;SDS011;55017;52.848;6.748;2022-12-16T04:29:20;186.63;;;176.15;;
57057;SDS011;55017;52.848;6.748;2022-12-16T04:31:46;186.50;;;176.57;;
57057;SDS011;55017;52.848;6.748;2022-12-16T04:34:12;182.23;;;172.30;;
57057;SDS011;55017;52.848;6.748;2022-12-16T04:36:54;183.02;;;173.20;;
57057;SDS011;55017;52.848;6.748;2022-12-16T04:39:39;186.40;;;176.38;;
57057;SDS011;55017;52.848;6.748;2022-12-16T04:42:24;185.27;;;175.27;;
57057;SDS011;55017;52.848;6.748;2022-12-16T04:45:09;189.52;;;179.07;;
57057;SDS011;55017;52.848;6.748;2022-12-16T04:47:54;186.27;;;176.07;;
57057;SDS011;55017;52.848;6.748;2022-12-16T04:50:38;185.25;;;174.98;;
57057;SDS011;55017;52.848;6.748;2022-12-16T04:53:23;179.02;;;169.40;;
57057;SDS011;55017;52.848;6.748;2022-12-16T04:56:08;181.88;;;172.15;;
57057;SDS011;55017;52.848;6.748;2022-12-16T04:58:53;185.73;;;175.30;;
57057;SDS011;55017;52.848;6.748;2022-12-16T05:01:37;184.88;;;174.60;;
57057;SDS011;55017;52.848;6.748;2022-12-16T05:04:22;183.75;;;174.52;;
57057;SDS011;55017;52.848;6.748;2022-12-16T05:07:07;185.70;;;175.40;;
57057;SDS011;55017;52.848;6.748;2022-12-16T05:09:52;182.40;;;172.70;;
57057;SDS011;55017;52.848;6.748;2022-12-16T05:12:37;185.35;;;175.88;;
57057;SDS011;55017;52.848;6.748;2022-12-16T05:15:22;183.70;;;173.55;;
57057;SDS011;55017;52.848;6.748;2022-12-16T05:18:08;184.60;;;174.95;;
57057;SDS011;55017;52.848;6.748;2022-12-16T05:20:53;181.93;;;172.48;;
57057;SDS011;55017;52.848;6.748;2022-12-16T05:23:38;182.98;;;173.20;;
57057;SDS011;55017;52.848;6.748;2022-12-16T05:26:22;184.27;;;174.52;;
57057;SDS011;55017;52.848;6.748;2022-12-16T05:29:07;181.73;;;171.80;;
57057;SDS011;55017;52.848;6.748;2022-12-16T05:31:52;179.60;;;169.98;;
57057;SDS011;55017;52.848;6.748;2022-12-16T05:34:37;182.80;;;172.85;;
57057;SDS011;55017;52.848;6.748;2022-12-16T05:37:22;183.00;;;173.50;;
57057;SDS011;55017;52.848;6.748;2022-12-16T05:40:08;184.48;;;174.52;;
57057;SDS011;55017;52.848;6.748;2022-12-16T05:42:53;181.93;;;171.77;;
57057;SDS011;55017;52.848;6.748;2022-12-16T05:45:38;183.63;;;174.38;;
57057;SDS011;55017;52.848;6.748;2022-12-16T05:48:23;181.38;;;171.77;;
57057;SDS011;55017;52.848;6.748;2022-12-16T05:51:08;177.50;;;168.50;;
57057;SDS011;55017;52.848;6.748;2022-12-16T05:53:53;178.07;;;168.85;;
57057;SDS011;55017;52.848;6.748;2022-12-16T05:56:38;179.00;;;169.80;;
57057;SDS011;55017;52.848;6.748;2022-12-16T05:59:23;177.32;;;168.93;;
57057;SDS011;55017;52.848;6.748;2022-12-16T06:02:08;176.55;;;167.18;;
57057;SDS011;55017;52.848;6.748;2022-12-16T06:04:53;176.15;;;167.48;;
57057;SDS011;55017;52.848;6.748;2022-12-16T06:07:38;172.25;;;163.38;;
57057;SDS011;55017;52.848;6.748;2022-12-16T06:10:22;177.23;;;167.98;;
57057;SDS011;55017;52.848;6.748;2022-12-16T06:13:07;180.32;;;171.40;;
57057;SDS011;55017;52.848;6.748;2022-12-16T06:15:52;172.52;;;164.10;;
57057;SDS011;55017;52.848;6.748;2022-12-16T06:18:37;175.18;;;166.48;;
57057;SDS011;55017;52.848;6.748;2022-12-16T06:21:22;172.77;;;164.45;;
57057;SDS011;55017;52.848;6.748;2022-12-16T06:24:07;178.48;;;169.73;;
57057;SDS011;55017;52.848;6.748;2022-12-16T06:26:52;173.68;;;165.00;;
57057;SDS011;55017;52.848;6.748;2022-12-16T06:29:36;172.43;;;164.20;;
57057;SDS011;55017;52.848;6.748;2022-12-16T06:32:21;173.57;;;165.20;;
57057;SDS011;55017;52.848;6.748;2022-12-16T06:35:06;174.48;;;165.90;;
57057;SDS011;55017;52.848;6.748;2022-12-16T06:37:51;173.35;;;165.18;;
57057;SDS011;55017;52.848;6.748;2022-12-16T06:40:36;171.93;;;163.65;;
57057;SDS011;55017;52.848;6.748;2022-12-16T06:43:21;171.63;;;163.32;;
57057;SDS011;55017;52.848;6.748;2022-12-16T06:46:06;169.63;;;161.27;;
57057;SDS011;55017;52.848;6.748;2022-12-16T06:48:51;168.30;;;160.02;;
57057;SDS011;55017;52.848;6.748;2022-12-16T06:51:36;168.05;;;160.23;;
57057;SDS011;55017;52.848;6.748;2022-12-16T06:54:21;171.95;;;163.13;;
57057;SDS011;55017;52.848;6.748;2022-12-16T06:57:05;174.05;;;165.07;;
57057;SDS011;55017;52.848;6.748;2022-12-16T06:59:50;174.52;;;164.73;;
57057;SDS011;55017;52.848;6.748;2022-12-16T07:02:35;177.23;;;167.88;;
57057;SDS011;55017;52.848;6.748;2022-12-16T07:05:20;172.48;;;163.30;;
57057;SDS011;55017;52.848;6.748;2022-12-16T07:08:05;172.60;;;163.57;;
57057;SDS011;55017;52.848;6.748;2022-12-16T07:10:50;172.18;;;162.40;;
57057;SDS011;55017;52.848;6.748;2022-12-16T07:13:51;173.70;;;163.98;;
57057;SDS011;55017;52.848;6.748;2022-12-16T07:16:36;176.93;;;167.38;;
57057;SDS011;55017;52.848;6.748;2022-12-16T07:19:21;180.13;;;170.23;;
57057;SDS011;55017;52.848;6.748;2022-12-16T07:22:05;175.65;;;166.35;;
57057;SDS011;55017;52.848;6.748;2022-12-16T07:24:50;174.27;;;165.15;;
57057;SDS011;55017;52.848;6.748;2022-12-16T07:27:35;177.73;;;168.05;;
57057;SDS011;55017;52.848;6.748;2022-12-16T07:30:20;176.32;;;166.77;;
57057;SDS011;55017;52.848;6.748;2022-12-16T07:33:05;176.70;;;166.88;;
57057;SDS011;55017;52.848;6.748;2022-12-16T07:35:50;174.88;;;166.00;;
57057;SDS011;55017;52.848;6.748;2022-12-16T07:38:35;176.27;;;166.95;;
57057;SDS011;55017;52.848;6.748;2022-12-16T07:41:20;175.43;;;166.02;;
57057;SDS011;55017;52.848;6.748;2022-12-16T07:44:04;174.40;;;165.18;;
57057;SDS011;55017;52.848;6.748;2022-12-16T07:46:49;174.27;;;164.85;;
57057;SDS011;55017;52.848;6.748;2022-12-16T07:49:34;175.70;;;166.23;;
57057;SDS011;55017;52.848;6.748;2022-12-16T07:52:19;176.30;;;166.55;;
57057;SDS011;55017;52.848;6.748;2022-12-16T07:55:04;176.00;;;166.45;;
57057;SDS011;55017;52.848;6.748;2022-12-16T07:57:49;177.80;;;167.93;;
57057;SDS011;55017;52.848;6.748;2022-12-16T08:00:34;177.95;;;167.70;;
57057;SDS011;55017;52.848;6.748;2022-12-16T08:03:19;182.20;;;171.45;;
57057;SDS011;55017;52.848;6.748;2022-12-16T08:06:04;182.77;;;172.23;;
57057;SDS011;55017;52.848;6.748;2022-12-16T08:08:49;180.07;;;169.27;;
57057;SDS011;55017;52.848;6.748;2022-12-16T08:11:34;187.07;;;175.95;;
57057;SDS011;55017;52.848;6.748;2022-12-16T08:14:19;186.70;;;175.77;;
57057;SDS011;55017;52.848;6.748;2022-12-16T08:17:03;181.20;;;170.23;;
57057;SDS011;55017;52.848;6.748;2022-12-16T08:19:48;178.60;;;168.43;;
57057;SDS011;55017;52.848;6.748;2022-12-16T08:22:33;178.85;;;168.00;;
57057;SDS011;55017;52.848;6.748;2022-12-16T08:25:18;185.20;;;174.35;;
57057;SDS011;55017;52.848;6.748;2022-12-16T08:28:03;188.90;;;177.52;;
57057;SDS011;55017;52.848;6.748;2022-12-16T08:30:48;182.80;;;171.60;;
57057;SDS011;55017;52.848;6.748;2022-12-16T08:33:33;183.02;;;172.30;;
57057;SDS011;55017;52.848;6.748;2022-12-16T08:36:18;182.00;;;171.07;;
57057;SDS011;55017;52.848;6.748;2022-12-16T08:39:03;185.55;;;173.68;;
57057;SDS011;55017;52.848;6.748;2022-12-16T08:41:48;184.48;;;173.25;;
57057;SDS011;55017;52.848;6.748;2022-12-16T08:44:33;179.88;;;168.68;;
57057;SDS011;55017;52.848;6.748;2022-12-16T08:47:18;183.63;;;172.98;;
57057;SDS011;55017;52.848;6.748;2022-12-16T08:50:03;184.50;;;173.18;;
57057;SDS011;55017;52.848;6.748;2022-12-16T08:52:48;184.35;;;172.57;;
57057;SDS011;55017;52.848;6.748;2022-12-16T08:55:33;186.20;;;174.57;;
57057;SDS011;55017;52.848;6.748;2022-12-16T08:58:18;188.63;;;177.63;;
57057;SDS011;55017;52.848;6.748;2022-12-16T09:01:03;189.70;;;177.82;;
57057;SDS011;55017;52.848;6.748;2022-12-16T09:03:49;183.57;;;172.30;;
57057;SDS011;55017;52.848;6.748;2022-12-16T09:06:34;181.63;;;170.07;;
57057;SDS011;55017;52.848;6.748;2022-12-16T09:09:19;182.32;;;170.80;;
57057;SDS011;55017;52.848;6.748;2022-12-16T09:12:04;183.85;;;172.60;;
57057;SDS011;55017;52.848;6.748;2022-12-16T09:14:48;187.15;;;174.82;;
57057;SDS011;55017;52.848;6.748;2022-12-16T09:17:33;186.27;;;175.38;;
57057;SDS011;55017;52.848;6.748;2022-12-16T09:20:18;185.93;;;175.02;;
57057;SDS011;55017;52.848;6.748;2022-12-16T09:23:03;187.13;;;175.38;;
57057;SDS011;55017;52.848;6.748;2022-12-16T09:25:48;185.00;;;174.05;;
57057;SDS011;55017;52.848;6.748;2022-12-16T09:28:33;185.82;;;174.52;;
57057;SDS011;55017;52.848;6.748;2022-12-16T09:31:18;184.60;;;173.48;;
57057;SDS011;55017;52.848;6.748;2022-12-16T09:34:03;188.27;;;176.02;;
57057;SDS011;55017;52.848;6.748;2022-12-16T09:36:48;190.38;;;178.50;;
57057;SDS011;55017;52.848;6.748;2022-12-16T09:39:33;188.48;;;177.43;;
57057;SDS011;55017;52.848;6.748;2022-12-16T09:45:25;181.00;;;169.73;;
57057;SDS011;55017;52.848;6.748;2022-12-16T09:48:16;185.82;;;174.30;;
57057;SDS011;55017;52.848;6.748;2022-12-16T09:51:05;189.45;;;177.60;;
57057;SDS011;55017;52.848;6.748;2022-12-16T09:53:51;188.60;;;176.75;;
57057;SDS011;55017;52.848;6.748;2022-12-16T09:56:37;188.30;;;176.05;;
57057;SDS011;55017;52.848;6.748;2022-12-16T09:59:26;183.95;;;171.40;;
57057;SDS011;55017;52.848;6.748;2022-12-16T10:02:13;187.55;;;175.52;;
57057;SDS011;55017;52.848;6.748;2022-12-16T10:04:58;186.70;;;174.80;;
57057;SDS011;55017;52.848;6.748;2022-12-16T10:08:08;184.85;;;173.10;;
57057;SDS011;55017;52.848;6.748;2022-12-16T10:10:52;184.38;;;173.30;;
57057;SDS011;55017;52.848;6.748;2022-12-16T10:13:42;190.73;;;178.68;;
57057;SDS011;55017;52.848;6.748;2022-12-16T10:24:56;184.77;;;173.13;;
57057;SDS011;55017;52.848;6.748;2022-12-16T10:27:46;191.85;;;179.70;;
57057;SDS011;55017;52.848;6.748;2022-12-16T10:33:15;190.20;;;177.60;;
57057;SDS011;55017;52.848;6.748;2022-12-16T10:36:02;188.40;;;176.35;;
57057;SDS011;55017;52.848;6.748;2022-12-16T10:38:50;189.75;;;177.82;;
57057;SDS011;55017;52.848;6.748;2022-12-16T10:41:36;189.20;;;177.05;;
57057;SDS011;55017;52.848;6.748;2022-12-16T10:47:26;190.90;;;178.55;;
57057;SDS011;55017;52.848;6.748;2022-12-16T10:50:11;194.20;;;181.38;;
57057;SDS011;55017;52.848;6.748;2022-12-16T10:53:00;192.65;;;180.45;;
57057;SDS011;55017;52.848;6.748;2022-12-16T10:58:45;189.00;;;176.35;;
57057;SDS011;55017;52.848;6.748;2022-12-16T11:01:30;184.45;;;172.85;;
57057;SDS011;55017;52.848;6.748;2022-12-16T11:07:21;193.80;;;180.88;;
57057;SDS011;55017;52.848;6.748;2022-12-16T11:13:10;188.95;;;176.65;;
57057;SDS011;55017;52.848;6.748;2022-12-16T11:16:04;187.10;;;174.43;;
57057;SDS011;55017;52.848;6.748;2022-12-16T11:18:49;191.70;;;178.52;;
57057;SDS011;55017;52.848;6.748;2022-12-16T11:21:34;190.52;;;177.98;;
57057;SDS011;55017;52.848;6.748;2022-12-16T11:24:19;193.90;;;180.35;;
57057;SDS011;55017;52.848;6.748;2022-12-16T11:27:05;191.07;;;177.95;;
57057;SDS011;55017;52.848;6.748;2022-12-16T11:32:43;195.23;;;181.25;;
57057;SDS011;55017;52.848;6.748;2022-12-16T11:35:29;190.27;;;177.30;;
57057;SDS011;55017;52.848;6.748;2022-12-16T11:38:17;191.50;;;178.30;;
57057;SDS011;55017;52.848;6.748;2022-12-16T11:41:04;196.95;;;181.68;;
57057;SDS011;55017;52.848;6.748;2022-12-16T11:43:49;194.18;;;179.90;;
57057;SDS011;55017;52.848;6.748;2022-12-16T11:46:35;197.88;;;183.15;;
57057;SDS011;55017;52.848;6.748;2022-12-16T11:49:29;200.60;;;185.60;;
57057;SDS011;55017;52.848;6.748;2022-12-16T11:52:15;198.30;;;183.80;;
57057;SDS011;55017;52.848;6.748;2022-12-16T11:55:04;197.90;;;183.45;;
57057;SDS011;55017;52.848;6.748;2022-12-16T11:58:01;197.10;;;182.20;;
57057;SDS011;55017;52.848;6.748;2022-12-16T12:00:57;194.73;;;179.15;;
57057;SDS011;55017;52.848;6.748;2022-12-16T12:03:45;198.23;;;182.80;;
57057;SDS011;55017;52.848;6.748;2022-12-16T12:09:28;206.48;;;190.43;;
57057;SDS011;55017;52.848;6.748;2022-12-16T12:12:19;190.50;;;176.77;;
57057;SDS011;55017;52.848;6.748;2022-12-16T12:18:15;199.15;;;183.10;;
57057;SDS011;55017;52.848;6.748;2022-12-16T12:21:10;208.95;;;192.00;;
57057;SDS011;55017;52.848;6.748;2022-12-16T12:26:54;194.13;;;180.13;;
57057;SDS011;55017;52.848;6.748;2022-12-16T12:38:24;200.10;;;183.30;;
57057;SDS011;55017;52.848;6.748;2022-12-16T12:41:13;201.02;;;184.60;;
57057;SDS011;55017;52.848;6.748;2022-12-16T12:44:04;203.00;;;187.23;;
57057;SDS011;55017;52.848;6.748;2022-12-16T12:46:53;208.55;;;192.23;;
57057;SDS011;55017;52.848;6.748;2022-12-16T12:49:45;203.13;;;186.32;;
57057;SDS011;55017;52.848;6.748;2022-12-16T12:55:40;203.23;;;186.88;;
57057;SDS011;55017;52.848;6.748;2022-12-16T12:58:27;202.98;;;186.07;;
57057;SDS011;55017;52.848;6.748;2022-12-16T13:01:12;202.30;;;185.82;;
57057;SDS011;55017;52.848;6.748;2022-12-16T13:06:44;203.93;;;187.60;;
57057;SDS011;55017;52.848;6.748;2022-12-16T13:09:30;202.63;;;186.15;;
57057;SDS011;55017;52.848;6.748;2022-12-16T13:20:49;209.80;;;192.40;;
57057;SDS011;55017;52.848;6.748;2022-12-16T13:23:37;207.95;;;190.20;;
57057;SDS011;55017;52.848;6.748;2022-12-16T13:26:23;209.70;;;191.60;;
57057;SDS011;55017;52.848;6.748;2022-12-16T13:32:00;200.48;;;184.00;;
57057;SDS011;55017;52.848;6.748;2022-12-16T13:34:45;212.07;;;193.57;;
57057;SDS011;55017;52.848;6.748;2022-12-16T13:37:30;214.75;;;194.32;;
57057;SDS011;55017;52.848;6.748;2022-12-16T13:40:16;207.95;;;189.85;;
57057;SDS011;55017;52.848;6.748;2022-12-16T13:43:02;206.82;;;187.98;;
57057;SDS011;55017;52.848;6.748;2022-12-16T13:48:48;205.02;;;185.15;;
57057;SDS011;55017;52.848;6.748;2022-12-16T13:57:11;214.52;;;193.68;;
57057;SDS011;55017;52.848;6.748;2022-12-16T13:59:58;212.07;;;190.70;;
57057;SDS011;55017;52.848;6.748;2022-12-16T14:02:44;210.45;;;190.77;;
57057;SDS011;55017;52.848;6.748;2022-12-16T14:05:30;212.15;;;192.05;;
57057;SDS011;55017;52.848;6.748;2022-12-16T14:08:17;213.80;;;193.65;;
57057;SDS011;55017;52.848;6.748;2022-12-16T14:11:04;202.85;;;185.10;;
57057;SDS011;55017;52.848;6.748;2022-12-16T14:14:09;207.35;;;189.05;;
57057;SDS011;55017;52.848;6.748;2022-12-16T14:16:58;206.35;;;187.32;;
57057;SDS011;55017;52.848;6.748;2022-12-16T14:23:11;205.40;;;186.73;;
57057;SDS011;55017;52.848;6.748;2022-12-16T14:26:00;200.07;;;183.47;;
57057;SDS011;55017;52.848;6.748;2022-12-16T14:28:45;215.85;;;194.15;;
57057;SDS011;55017;52.848;6.748;2022-12-16T14:31:34;207.43;;;188.70;;
57057;SDS011;55017;52.848;6.748;2022-12-16T14:34:21;215.40;;;194.27;;
57057;SDS011;55017;52.848;6.748;2022-12-16T14:37:16;218.25;;;197.02;;
57057;SDS011;55017;52.848;6.748;2022-12-16T14:40:01;212.60;;;192.68;;
57057;SDS011;55017;52.848;6.748;2022-12-16T14:42:48;221.18;;;199.10;;
57057;SDS011;55017;52.848;6.748;2022-12-16T14:57:00;207.52;;;187.88;;
57057;SDS011;55017;52.848;6.748;2022-12-16T14:59:45;218.55;;;196.18;;
57057;SDS011;55017;52.848;6.748;2022-12-16T15:02:32;214.00;;;194.10;;
57057;SDS011;55017;52.848;6.748;2022-12-16T15:05:18;209.77;;;189.52;;
57057;SDS011;55017;52.848;6.748;2022-12-16T15:08:04;210.15;;;190.38;;
57057;SDS011;55017;52.848;6.748;2022-12-16T15:10:48;211.85;;;192.93;;
57057;SDS011;55017;52.848;6.748;2022-12-16T15:13:33;215.60;;;194.55;;
57057;SDS011;55017;52.848;6.748;2022-12-16T15:16:20;203.05;;;183.88;;
57057;SDS011;55017;52.848;6.748;2022-12-16T15:19:08;207.85;;;189.05;;
57057;SDS011;55017;52.848;6.748;2022-12-16T15:24:41;205.18;;;186.48;;
57057;SDS011;55017;52.848;6.748;2022-12-16T15:27:32;208.90;;;190.88;;
57057;SDS011;55017;52.848;6.748;2022-12-16T15:30:30;210.70;;;192.32;;
57057;SDS011;55017;52.848;6.748;2022-12-16T15:33:16;201.60;;;183.45;;
57057;SDS011;55017;52.848;6.748;2022-12-16T15:36:01;207.02;;;188.45;;
57057;SDS011;55017;52.848;6.748;2022-12-16T15:38:46;202.15;;;184.10;;
57057;SDS011;55017;52.848;6.748;2022-12-16T15:41:33;201.88;;;183.82;;
57057;SDS011;55017;52.848;6.748;2022-12-16T15:44:19;209.18;;;189.43;;
57057;SDS011;55017;52.848;6.748;2022-12-16T15:47:04;202.10;;;184.23;;
57057;SDS011;55017;52.848;6.748;2022-12-16T15:49:50;209.70;;;190.57;;
57057;SDS011;55017;52.848;6.748;2022-12-16T15:52:38;200.27;;;181.50;;
57057;SDS011;55017;52.848;6.748;2022-12-16T16:01:05;206.55;;;186.77;;
57057;SDS011;55017;52.848;6.748;2022-12-16T16:03:51;203.30;;;183.98;;
57057;SDS011;55017;52.848;6.748;2022-12-16T16:06:36;210.43;;;189.48;;
57057;SDS011;55017;52.848;6.748;2022-12-16T16:09:23;211.18;;;188.45;;
57057;SDS011;55017;52.848;6.748;2022-12-16T16:12:08;208.35;;;188.90;;
57057;SDS011;55017;52.848;6.748;2022-12-16T16:14:53;222.35;;;194.27;;
57057;SDS011;55017;52.848;6.748;2022-12-16T16:17:39;207.52;;;187.18;;
57057;SDS011;55017;52.848;6.748;2022-12-16T16:20:24;209.25;;;189.35;;
57057;SDS011;55017;52.848;6.748;2022-12-16T16:23:09;209.52;;;189.55;;
57057;SDS011;55017;52.848;6.748;2022-12-16T16:25:54;207.98;;;188.48;;
57057;SDS011;55017;52.848;6.748;2022-12-16T16:28:39;213.88;;;189.48;;
57057;SDS011;55017;52.848;6.748;2022-12-16T16:31:23;218.13;;;194.90;;
57057;SDS011;55017;52.848;6.748;2022-12-16T16:34:08;211.57;;;189.73;;
57057;SDS011;55017;52.848;6.748;2022-12-16T16:36:54;209.13;;;186.93;;
57057;SDS011;55017;52.848;6.748;2022-12-16T16:39:40;234.40;;;193.13;;
57057;SDS011;55017;52.848;6.748;2022-12-16T16:42:24;207.38;;;186.93;;
57057;SDS011;55017;52.848;6.748;2022-12-16T16:45:10;207.20;;;186.10;;
57057;SDS011;55017;52.848;6.748;2022-12-16T16:47:56;196.73;;;179.35;;
57057;SDS011;55017;52.848;6.748;2022-12-16T16:50:45;212.25;;;182.60;;
57057;SDS011;55017;52.848;6.748;2022-12-16T16:53:30;199.20;;;179.63;;
57057;SDS011;55017;52.848;6.748;2022-12-16T16:56:15;203.05;;;185.13;;
57057;SDS011;55017;52.848;6.748;2022-12-16T16:58:59;193.05;;;176.60;;
57057;SDS011;55017;52.848;6.748;2022-12-16T17:01:44;198.35;;;180.70;;
57057;SDS011;55017;52.848;6.748;2022-12-16T17:04:29;194.18;;;175.85;;
57057;SDS011;55017;52.848;6.748;2022-12-16T17:07:14;196.45;;;177.73;;
57057;SDS011;55017;52.848;6.748;2022-12-16T17:09:59;192.88;;;177.07;;
57057;SDS011;55017;52.848;6.748;2022-12-16T17:12:43;195.88;;;179.45;;
57057;SDS011;55017;52.848;6.748;2022-12-16T17:15:30;192.07;;;175.18;;
57057;SDS011;55017;52.848;6.748;2022-12-16T17:18:15;195.77;;;177.00;;
57057;SDS011;55017;52.848;6.748;2022-12-16T17:21:00;205.65;;;177.95;;
57057;SDS011;55017;52.848;6.748;2022-12-16T17:23:44;194.00;;;177.60;;